sensor_id;sensor_type;location;lat;lon;timestamp;pressure;altitude;pressure_sealevel;temperature;humidity
550;BME280;20066;48.764;9.176;2023-04-08T00:00:20;98446.81;;;11.07;67.43
550;BME280;20066;48.764;9.176;2023-04-08T00:02:48;98443.38;;;11.06;68.35
550;BME280;20066;48.764;9.176;2023-04-08T00:05:16;98440.25;;;10.94;69.25
550;BME280;20066;48.764;9.176;2023-04-08T00:07:43;98442.31;;;11.60;66.50
550;BME280;20066;48.764;9.176;2023-04-08T00:10:11;98443.91;;;11.83;66.31
550;BME280;20066;48.764;9.176;2023-04-08T00:12:40;98448.53;;;12.00;64.34
550;BME280;20066;48.764;9.176;2023-04-08T00:15:08;98438.47;;;11.54;66.40
550;BME280;20066;48.764;9.176;2023-04-08T00:17:36;98439.19;;;11.19;68.15
550;BME280;20066;48.764;9.176;2023-04-08T00:20:05;98452.50;;;10.84;68.82
550;BME280;20066;48.764;9.176;2023-04-08T00:22:33;98444.19;;;11.25;67.81
550;BME280;20066;48.764;9.176;2023-04-08T00:25:01;98449.13;;;11.05;67.96
550;BME280;20066;48.764;9.176;2023-04-08T00:27:32;98442.63;;;11.16;66.76
550;BME280;20066;48.764;9.176;2023-04-08T00:30:01;98442.31;;;11.53;66.76
550;BME280;20066;48.764;9.176;2023-04-08T00:32:29;98442.97;;;11.01;68.70
550;BME280;20066;48.764;9.176;2023-04-08T00:34:57;98436.13;;;11.39;66.28
550;BME280;20066;48.764;9.176;2023-04-08T00:37:25;98447.13;;;10.80;70.15
550;BME280;20066;48.764;9.176;2023-04-08T00:39:52;98449.44;;;10.89;69.29
550;BME280;20066;48.764;9.176;2023-04-08T00:42:20;98457.91;;;10.91;69.00
550;BME280;20066;48.764;9.176;2023-04-08T00:44:48;98460.59;;;10.91;69.73
550;BME280;20066;48.764;9.176;2023-04-08T00:47:17;98454.69;;;10.57;70.18
550;BME280;20066;48.764;9.176;2023-04-08T00:49:45;98464.41;;;10.79;68.69
550;BME280;20066;48.764;9.176;2023-04-08T00:52:13;98471.06;;;11.03;67.08
550;BME280;20066;48.764;9.176;2023-04-08T00:54:41;98463.63;;;10.72;70.24
550;BME280;20066;48.764;9.176;2023-04-08T00:57:09;98465.50;;;10.68;70.00
550;BME280;20066;48.764;9.176;2023-04-08T00:59:36;98468.28;;;10.86;70.12
550;BME280;20066;48.764;9.176;2023-04-08T01:02:11;98473.38;;;11.15;68.28
550;BME280;20066;48.764;9.176;2023-04-08T01:04:51;98468.06;;;11.37;67.29
550;BME280;20066;48.764;9.176;2023-04-08T01:07:23;98460.16;;;10.75;70.29
550;BME280;20066;48.764;9.176;2023-04-08T01:09:55;98460.63;;;10.95;69.29
550;BME280;20066;48.764;9.176;2023-04-08T01:12:25;98464.38;;;10.72;69.16
550;BME280;20066;48.764;9.176;2023-04-08T01:14:56;98465.53;;;10.75;70.11
550;BME280;20066;48.764;9.176;2023-04-08T01:17:26;98458.59;;;10.70;68.51
550;BME280;20066;48.764;9.176;2023-04-08T01:19:59;98465.94;;;10.77;68.97
550;BME280;20066;48.764;9.176;2023-04-08T01:22:33;98465.44;;;10.54;71.31
550;BME280;20066;48.764;9.176;2023-04-08T01:25:07;98466.44;;;11.07;67.75
550;BME280;20066;48.764;9.176;2023-04-08T01:27:39;98465.50;;;10.68;69.68
550;BME280;20066;48.764;9.176;2023-04-08T01:30:08;98464.75;;;10.74;69.33
550;BME280;20066;48.764;9.176;2023-04-08T01:32:39;98462.84;;;10.75;69.31
550;BME280;20066;48.764;9.176;2023-04-08T01:35:08;98463.25;;;10.77;70.15
550;BME280;20066;48.764;9.176;2023-04-08T01:37:37;98460.41;;;11.49;66.15
550;BME280;20066;48.764;9.176;2023-04-08T01:40:07;98467.94;;;10.94;67.84
550;BME280;20066;48.764;9.176;2023-04-08T01:42:35;98458.59;;;10.70;69.45
550;BME280;20066;48.764;9.176;2023-04-08T01:45:06;98457.81;;;10.70;69.39
550;BME280;20066;48.764;9.176;2023-04-08T01:47:36;98460.59;;;10.80;68.72
550;BME280;20066;48.764;9.176;2023-04-08T01:50:07;98465.75;;;10.45;70.51
550;BME280;20066;48.764;9.176;2023-04-08T01:52:37;98466.81;;;11.02;67.63
550;BME280;20066;48.764;9.176;2023-04-08T01:55:07;98464.56;;;11.22;67.79
550;BME280;20066;48.764;9.176;2023-04-08T01:57:37;98462.53;;;10.91;67.64
550;BME280;20066;48.764;9.176;2023-04-08T02:00:08;98456.53;;;10.46;69.91
550;BME280;20066;48.764;9.176;2023-04-08T02:02:37;98453.28;;;10.81;67.31
550;BME280;20066;48.764;9.176;2023-04-08T02:05:08;98460.13;;;10.10;70.37
550;BME280;20066;48.764;9.176;2023-04-08T02:07:36;98463.44;;;10.43;70.73
550;BME280;20066;48.764;9.176;2023-04-08T02:10:04;98467.97;;;10.29;70.00
550;BME280;20066;48.764;9.176;2023-04-08T02:12:32;98458.97;;;10.11;70.65
550;BME280;20066;48.764;9.176;2023-04-08T02:15:01;98466.59;;;10.56;69.55
550;BME280;20066;48.764;9.176;2023-04-08T02:17:34;98465.38;;;10.50;70.78
550;BME280;20066;48.764;9.176;2023-04-08T02:20:05;98474.09;;;10.95;68.30
550;BME280;20066;48.764;9.176;2023-04-08T02:22:38;98459.81;;;10.18;69.84
550;BME280;20066;48.764;9.176;2023-04-08T02:25:09;98457.25;;;10.36;71.79
550;BME280;20066;48.764;9.176;2023-04-08T02:27:39;98473.66;;;10.89;68.08
550;BME280;20066;48.764;9.176;2023-04-08T02:30:09;98463.47;;;11.41;65.81
550;BME280;20066;48.764;9.176;2023-04-08T02:32:40;98468.47;;;11.35;66.64
550;BME280;20066;48.764;9.176;2023-04-08T02:35:09;98468.38;;;11.10;67.63
550;BME280;20066;48.764;9.176;2023-04-08T02:37:38;98468.72;;;11.05;66.79
550;BME280;20066;48.764;9.176;2023-04-08T02:40:22;98469.47;;;10.99;68.01
550;BME280;20066;48.764;9.176;2023-04-08T02:42:50;98467.63;;;11.20;66.27
550;BME280;20066;48.764;9.176;2023-04-08T02:45:18;98472.91;;;10.92;65.26
550;BME280;20066;48.764;9.176;2023-04-08T02:47:47;98463.63;;;10.82;68.21
550;BME280;20066;48.764;9.176;2023-04-08T02:50:15;98469.53;;;11.13;66.93
550;BME280;20066;48.764;9.176;2023-04-08T02:52:43;98457.28;;;11.37;65.70
550;BME280;20066;48.764;9.176;2023-04-08T02:55:11;98468.34;;;10.96;68.37
550;BME280;20066;48.764;9.176;2023-04-08T02:57:40;98465.88;;;10.63;67.84
550;BME280;20066;48.764;9.176;2023-04-08T03:00:09;98463.13;;;10.56;69.18
550;BME280;20066;48.764;9.176;2023-04-08T03:02:37;98463.59;;;10.14;69.89
550;BME280;20066;48.764;9.176;2023-04-08T03:05:07;98465.59;;;10.86;68.06
550;BME280;20066;48.764;9.176;2023-04-08T03:07:35;98466.47;;;11.14;67.22
550;BME280;20066;48.764;9.176;2023-04-08T03:10:05;98457.59;;;11.07;66.91
550;BME280;20066;48.764;9.176;2023-04-08T03:12:33;98468.03;;;11.22;65.88
550;BME280;20066;48.764;9.176;2023-04-08T03:15:00;98459.22;;;11.40;65.89
550;BME280;20066;48.764;9.176;2023-04-08T03:17:29;98462.69;;;11.51;64.51
550;BME280;20066;48.764;9.176;2023-04-08T03:19:59;98466.16;;;11.41;64.79
550;BME280;20066;48.764;9.176;2023-04-08T03:22:28;98466.03;;;10.95;66.84
550;BME280;20066;48.764;9.176;2023-04-08T03:24:56;98469.00;;;10.75;67.67
550;BME280;20066;48.764;9.176;2023-04-08T03:27:24;98465.09;;;10.66;67.74
550;BME280;20066;48.764;9.176;2023-04-08T03:29:51;98468.47;;;10.49;66.79
550;BME280;20066;48.764;9.176;2023-04-08T03:32:19;98469.72;;;10.65;67.00
550;BME280;20066;48.764;9.176;2023-04-08T03:34:47;98463.47;;;10.47;68.37
550;BME280;20066;48.764;9.176;2023-04-08T03:37:16;98474.38;;;10.75;66.52
550;BME280;20066;48.764;9.176;2023-04-08T03:39:45;98469.22;;;9.98;70.27
550;BME280;20066;48.764;9.176;2023-04-08T03:42:13;98471.69;;;10.75;67.14
550;BME280;20066;48.764;9.176;2023-04-08T03:44:41;98464.34;;;10.69;66.73
550;BME280;20066;48.764;9.176;2023-04-08T03:47:09;98474.78;;;10.77;68.05
550;BME280;20066;48.764;9.176;2023-04-08T03:49:36;98466.84;;;11.13;64.72
550;BME280;20066;48.764;9.176;2023-04-08T03:52:04;98471.50;;;11.23;64.80
550;BME280;20066;48.764;9.176;2023-04-08T03:54:32;98471.72;;;10.82;66.02
550;BME280;20066;48.764;9.176;2023-04-08T03:57:01;98468.34;;;11.07;65.99
550;BME280;20066;48.764;9.176;2023-04-08T03:59:29;98467.22;;;11.15;65.85
550;BME280;20066;48.764;9.176;2023-04-08T04:01:57;98459.63;;;11.52;63.26
550;BME280;20066;48.764;9.176;2023-04-08T04:04:25;98471.22;;;10.59;66.57
550;BME280;20066;48.764;9.176;2023-04-08T04:06:53;98466.59;;;10.56;67.79
550;BME280;20066;48.764;9.176;2023-04-08T04:09:22;98472.13;;;10.23;69.49
550;BME280;20066;48.764;9.176;2023-04-08T04:11:49;98475.44;;;10.57;66.88
550;BME280;20066;48.764;9.176;2023-04-08T04:14:18;98474.66;;;10.05;69.78
550;BME280;20066;48.764;9.176;2023-04-08T04:16:46;98472.56;;;10.28;68.63
550;BME280;20066;48.764;9.176;2023-04-08T04:19:14;98474.34;;;10.14;69.40
550;BME280;20066;48.764;9.176;2023-04-08T04:21:43;98472.84;;;10.16;69.43
550;BME280;20066;48.764;9.176;2023-04-08T04:24:10;98469.50;;;10.30;69.15
550;BME280;20066;48.764;9.176;2023-04-08T04:26:39;98468.81;;;10.40;67.97
550;BME280;20066;48.764;9.176;2023-04-08T04:29:07;98474.22;;;10.51;67.26
550;BME280;20066;48.764;9.176;2023-04-08T04:31:36;98471.53;;;10.51;67.30
550;BME280;20066;48.764;9.176;2023-04-08T04:34:04;98479.06;;;10.27;69.38
550;BME280;20066;48.764;9.176;2023-04-08T04:36:31;98475.31;;;9.91;71.80
550;BME280;20066;48.764;9.176;2023-04-08T04:38:59;98481.16;;;10.00;71.09
550;BME280;20066;48.764;9.176;2023-04-08T04:41:27;98483.72;;;10.27;67.58
550;BME280;20066;48.764;9.176;2023-04-08T04:43:55;98487.63;;;10.43;67.43
550;BME280;20066;48.764;9.176;2023-04-08T04:46:22;98487.69;;;10.51;68.22
550;BME280;20066;48.764;9.176;2023-04-08T04:48:51;98485.88;;;10.69;67.70
550;BME280;20066;48.764;9.176;2023-04-08T04:51:24;98479.34;;;10.70;66.93
550;BME280;20066;48.764;9.176;2023-04-08T04:53:52;98484.47;;;10.96;64.91
550;BME280;20066;48.764;9.176;2023-04-08T04:56:20;98482.47;;;10.79;65.58
550;BME280;20066;48.764;9.176;2023-04-08T04:58:48;98491.75;;;10.92;65.76
550;BME280;20066;48.764;9.176;2023-04-08T05:01:16;98496.38;;;10.88;65.89
550;BME280;20066;48.764;9.176;2023-04-08T05:03:44;98499.94;;;11.17;64.44
550;BME280;20066;48.764;9.176;2023-04-08T05:06:13;98502.56;;;11.03;64.35
550;BME280;20066;48.764;9.176;2023-04-08T05:08:41;98500.53;;;10.78;64.30
550;BME280;20066;48.764;9.176;2023-04-08T05:11:09;98517.56;;;10.38;69.00
550;BME280;20066;48.764;9.176;2023-04-08T05:13:36;98506.59;;;10.14;68.20
550;BME280;20066;48.764;9.176;2023-04-08T05:16:04;98514.97;;;10.53;67.99
550;BME280;20066;48.764;9.176;2023-04-08T05:18:32;98513.00;;;11.15;64.95
550;BME280;20066;48.764;9.176;2023-04-08T05:21:00;98521.13;;;11.26;63.98
550;BME280;20066;48.764;9.176;2023-04-08T05:23:29;98516.78;;;10.96;65.21
550;BME280;20066;48.764;9.176;2023-04-08T05:25:57;98518.81;;;11.28;64.83
550;BME280;20066;48.764;9.176;2023-04-08T05:28:28;98519.22;;;11.30;64.78
550;BME280;20066;48.764;9.176;2023-04-08T05:30:55;98527.00;;;11.59;62.64
550;BME280;20066;48.764;9.176;2023-04-08T05:33:23;98517.75;;;11.57;62.57
550;BME280;20066;48.764;9.176;2023-04-08T05:35:52;98522.03;;;11.69;62.91
550;BME280;20066;48.764;9.176;2023-04-08T05:38:19;98525.88;;;11.68;62.26
550;BME280;20066;48.764;9.176;2023-04-08T05:40:49;98529.72;;;11.67;62.50
550;BME280;20066;48.764;9.176;2023-04-08T05:43:16;98534.41;;;10.87;64.62
550;BME280;20066;48.764;9.176;2023-04-08T05:45:44;98540.75;;;11.30;64.46
550;BME280;20066;48.764;9.176;2023-04-08T05:48:12;98540.19;;;10.89;65.42
550;BME280;20066;48.764;9.176;2023-04-08T05:50:40;98538.34;;;10.41;67.13
550;BME280;20066;48.764;9.176;2023-04-08T05:53:08;98533.41;;;10.06;70.43
550;BME280;20066;48.764;9.176;2023-04-08T05:55:36;98540.63;;;9.95;70.55
550;BME280;20066;48.764;9.176;2023-04-08T05:58:05;98542.66;;;9.68;72.72
550;BME280;20066;48.764;9.176;2023-04-08T06:00:33;98540.59;;;10.36;70.03
550;BME280;20066;48.764;9.176;2023-04-08T06:03:01;98544.09;;;10.43;68.76
550;BME280;20066;48.764;9.176;2023-04-08T06:05:30;98548.13;;;10.67;67.82
550;BME280;20066;48.764;9.176;2023-04-08T06:07:58;98552.16;;;10.40;70.10
550;BME280;20066;48.764;9.176;2023-04-08T06:10:26;98550.75;;;10.60;67.19
550;BME280;20066;48.764;9.176;2023-04-08T06:12:53;98560.41;;;10.68;68.09
550;BME280;20066;48.764;9.176;2023-04-08T06:15:23;98555.09;;;10.24;70.32
550;BME280;20066;48.764;9.176;2023-04-08T06:17:52;98560.28;;;10.06;69.20
550;BME280;20066;48.764;9.176;2023-04-08T06:20:20;98556.72;;;10.32;70.11
550;BME280;20066;48.764;9.176;2023-04-08T06:22:48;98566.28;;;10.81;67.95
550;BME280;20066;48.764;9.176;2023-04-08T06:25:16;98567.09;;;10.89;66.60
550;BME280;20066;48.764;9.176;2023-04-08T06:27:43;98570.13;;;10.29;69.18
550;BME280;20066;48.764;9.176;2023-04-08T06:30:11;98572.44;;;10.85;67.77
550;BME280;20066;48.764;9.176;2023-04-08T06:32:40;98566.25;;;9.86;70.94
550;BME280;20066;48.764;9.176;2023-04-08T06:35:08;98566.13;;;10.56;68.64
550;BME280;20066;48.764;9.176;2023-04-08T06:37:36;98576.50;;;10.58;69.06
550;BME280;20066;48.764;9.176;2023-04-08T06:40:05;98573.41;;;10.56;67.96
550;BME280;20066;48.764;9.176;2023-04-08T06:42:33;98581.94;;;10.68;66.94
550;BME280;20066;48.764;9.176;2023-04-08T06:45:01;98581.75;;;10.98;66.00
550;BME280;20066;48.764;9.176;2023-04-08T06:47:29;98581.88;;;11.23;65.50
550;BME280;20066;48.764;9.176;2023-04-08T06:49:58;98586.91;;;11.25;65.43
550;BME280;20066;48.764;9.176;2023-04-08T06:52:26;98589.66;;;11.39;64.58
550;BME280;20066;48.764;9.176;2023-04-08T06:54:54;98589.19;;;11.19;64.31
550;BME280;20066;48.764;9.176;2023-04-08T06:57:21;98592.47;;;10.91;66.79
550;BME280;20066;48.764;9.176;2023-04-08T06:59:49;98594.28;;;11.45;64.03
550;BME280;20066;48.764;9.176;2023-04-08T07:02:18;98592.69;;;10.68;65.43
550;BME280;20066;48.764;9.176;2023-04-08T07:04:47;98588.69;;;10.44;67.34
550;BME280;20066;48.764;9.176;2023-04-08T07:09:56;98598.06;;;11.30;64.52
550;BME280;20066;48.764;9.176;2023-04-08T07:12:24;98593.84;;;11.29;64.92
550;BME280;20066;48.764;9.176;2023-04-08T07:14:52;98592.75;;;11.41;64.44
550;BME280;20066;48.764;9.176;2023-04-08T07:17:19;98595.88;;;11.50;63.75
550;BME280;20066;48.764;9.176;2023-04-08T07:19:47;98597.16;;;10.50;68.68
550;BME280;20066;48.764;9.176;2023-04-08T07:22:17;98599.81;;;10.43;67.39
550;BME280;20066;48.764;9.176;2023-04-08T07:24:44;98595.97;;;10.40;69.05
550;BME280;20066;48.764;9.176;2023-04-08T07:27:15;98609.06;;;10.45;66.74
550;BME280;20066;48.764;9.176;2023-04-08T07:29:43;98603.63;;;10.01;70.96
550;BME280;20066;48.764;9.176;2023-04-08T07:32:10;98604.69;;;10.27;70.15
550;BME280;20066;48.764;9.176;2023-04-08T07:34:38;98603.50;;;9.91;70.92
550;BME280;20066;48.764;9.176;2023-04-08T07:37:06;98604.28;;;10.28;68.32
550;BME280;20066;48.764;9.176;2023-04-08T07:39:35;98611.78;;;10.53;67.03
550;BME280;20066;48.764;9.176;2023-04-08T07:42:03;98609.84;;;11.04;65.12
550;BME280;20066;48.764;9.176;2023-04-08T07:44:31;98609.28;;;11.39;64.53
550;BME280;20066;48.764;9.176;2023-04-08T07:46:58;98616.63;;;11.49;63.21
550;BME280;20066;48.764;9.176;2023-04-08T07:49:26;98616.25;;;11.47;64.08
550;BME280;20066;48.764;9.176;2023-04-08T07:51:54;98628.22;;;11.60;63.92
550;BME280;20066;48.764;9.176;2023-04-08T07:54:22;98618.66;;;11.67;62.34
550;BME280;20066;48.764;9.176;2023-04-08T07:56:52;98620.06;;;11.46;63.32
550;BME280;20066;48.764;9.176;2023-04-08T07:59:20;98617.78;;;11.48;63.15
550;BME280;20066;48.764;9.176;2023-04-08T08:01:47;98617.53;;;11.75;63.05
550;BME280;20066;48.764;9.176;2023-04-08T08:04:15;98625.16;;;11.62;62.41
550;BME280;20066;48.764;9.176;2023-04-08T08:06:44;98620.28;;;11.99;61.69
550;BME280;20066;48.764;9.176;2023-04-08T08:09:12;98611.50;;;12.45;60.08
550;BME280;20066;48.764;9.176;2023-04-08T08:11:39;98611.13;;;12.47;59.44
550;BME280;20066;48.764;9.176;2023-04-08T08:14:08;98621.09;;;12.18;59.64
550;BME280;20066;48.764;9.176;2023-04-08T08:16:37;98624.56;;;12.18;59.52
550;BME280;20066;48.764;9.176;2023-04-08T08:19:05;98625.31;;;12.08;60.43
550;BME280;20066;48.764;9.176;2023-04-08T08:21:35;98636.16;;;12.40;59.04
550;BME280;20066;48.764;9.176;2023-04-08T08:24:03;98625.72;;;12.17;59.90
550;BME280;20066;48.764;9.176;2023-04-08T08:26:33;98630.50;;;11.55;61.71
550;BME280;20066;48.764;9.176;2023-04-08T08:29:02;98629.97;;;12.25;58.19
550;BME280;20066;48.764;9.176;2023-04-08T08:31:31;98635.31;;;12.01;58.61
550;BME280;20066;48.764;9.176;2023-04-08T08:33:59;98639.88;;;11.82;59.83
550;BME280;20066;48.764;9.176;2023-04-08T08:36:27;98643.47;;;12.25;58.72
550;BME280;20066;48.764;9.176;2023-04-08T08:38:55;98635.78;;;12.59;57.01
550;BME280;20066;48.764;9.176;2023-04-08T08:41:22;98640.84;;;11.42;60.20
550;BME280;20066;48.764;9.176;2023-04-08T08:43:50;98646.97;;;12.44;58.86
550;BME280;20066;48.764;9.176;2023-04-08T08:46:19;98651.53;;;12.22;58.80
550;BME280;20066;48.764;9.176;2023-04-08T08:48:48;98644.28;;;12.65;57.57
550;BME280;20066;48.764;9.176;2023-04-08T08:51:16;98648.09;;;12.32;58.37
550;BME280;20066;48.764;9.176;2023-04-08T08:53:44;98649.25;;;12.38;57.31
550;BME280;20066;48.764;9.176;2023-04-08T08:56:12;98648.53;;;13.12;56.27
550;BME280;20066;48.764;9.176;2023-04-08T08:58:44;98649.28;;;13.16;54.65
550;BME280;20066;48.764;9.176;2023-04-08T09:01:32;98644.25;;;13.18;53.62
550;BME280;20066;48.764;9.176;2023-04-08T09:04:10;98649.25;;;12.38;56.03
550;BME280;20066;48.764;9.176;2023-04-08T09:06:39;98653.81;;;13.47;54.74
550;BME280;20066;48.764;9.176;2023-04-08T09:09:08;98658.09;;;12.24;57.87
550;BME280;20066;48.764;9.176;2023-04-08T09:11:39;98647.75;;;12.65;56.05
550;BME280;20066;48.764;9.176;2023-04-08T09:14:18;98650.41;;;13.36;54.16
550;BME280;20066;48.764;9.176;2023-04-08T09:16:46;98650.84;;;12.92;54.51
550;BME280;20066;48.764;9.176;2023-04-08T09:19:16;98648.91;;;14.15;50.34
550;BME280;20066;48.764;9.176;2023-04-08T09:21:44;98653.75;;;14.97;48.38
550;BME280;20066;48.764;9.176;2023-04-08T09:24:26;98659.94;;;13.69;49.22
550;BME280;20066;48.764;9.176;2023-04-08T09:26:54;98656.69;;;14.13;49.85
550;BME280;20066;48.764;9.176;2023-04-08T09:29:23;98652.69;;;14.32;48.67
550;BME280;20066;48.764;9.176;2023-04-08T09:31:55;98657.09;;;14.67;47.17
550;BME280;20066;48.764;9.176;2023-04-08T09:34:26;98656.16;;;13.42;51.04
550;BME280;20066;48.764;9.176;2023-04-08T09:36:54;98658.16;;;14.25;49.74
550;BME280;20066;48.764;9.176;2023-04-08T09:39:22;98659.44;;;13.96;49.02
550;BME280;20066;48.764;9.176;2023-04-08T09:41:51;98653.22;;;14.09;49.87
550;BME280;20066;48.764;9.176;2023-04-08T09:44:20;98659.53;;;13.71;50.50
550;BME280;20066;48.764;9.176;2023-04-08T09:46:59;98653.84;;;14.31;48.01
550;BME280;20066;48.764;9.176;2023-04-08T09:49:39;98653.25;;;14.64;46.93
550;BME280;20066;48.764;9.176;2023-04-08T09:52:12;98652.59;;;14.98;45.31
550;BME280;20066;48.764;9.176;2023-04-08T09:54:48;98649.50;;;14.96;45.88
550;BME280;20066;48.764;9.176;2023-04-08T09:57:27;98650.06;;;14.14;44.38
550;BME280;20066;48.764;9.176;2023-04-08T09:59:59;98651.38;;;13.85;44.97
550;BME280;20066;48.764;9.176;2023-04-08T10:02:36;98656.69;;;13.99;43.87
550;BME280;20066;48.764;9.176;2023-04-08T10:05:11;98658.72;;;14.54;41.00
550;BME280;20066;48.764;9.176;2023-04-08T10:07:40;98654.75;;;14.14;41.24
550;BME280;20066;48.764;9.176;2023-04-08T10:10:09;98661.53;;;12.11;45.55
550;BME280;20066;48.764;9.176;2023-04-08T10:12:37;98650.34;;;12.05;46.95
550;BME280;20066;48.764;9.176;2023-04-08T10:15:32;98656.59;;;13.16;45.83
550;BME280;20066;48.764;9.176;2023-04-08T10:21:31;98664.31;;;12.64;46.27
550;BME280;20066;48.764;9.176;2023-04-08T10:23:59;98655.03;;;13.25;45.06
550;BME280;20066;48.764;9.176;2023-04-08T10:26:36;98648.84;;;13.32;44.46
550;BME280;20066;48.764;9.176;2023-04-08T10:29:29;98653.16;;;12.94;44.03
550;BME280;20066;48.764;9.176;2023-04-08T10:31:57;98657.97;;;13.77;43.42
550;BME280;20066;48.764;9.176;2023-04-08T10:34:25;98660.09;;;12.91;44.95
550;BME280;20066;48.764;9.176;2023-04-08T10:36:56;98651.94;;;13.34;44.83
550;BME280;20066;48.764;9.176;2023-04-08T10:39:27;98658.16;;;12.85;45.32
550;BME280;20066;48.764;9.176;2023-04-08T10:41:55;98648.88;;;12.54;47.25
550;BME280;20066;48.764;9.176;2023-04-08T10:44:24;98650.03;;;13.24;45.52
550;BME280;20066;48.764;9.176;2023-04-08T10:46:53;98658.66;;;14.06;43.35
550;BME280;20066;48.764;9.176;2023-04-08T10:49:21;98658.47;;;13.43;43.65
550;BME280;20066;48.764;9.176;2023-04-08T10:51:49;98660.03;;;12.27;46.27
550;BME280;20066;48.764;9.176;2023-04-08T10:54:19;98656.66;;;12.98;44.21
550;BME280;20066;48.764;9.176;2023-04-08T10:56:49;98650.41;;;13.33;43.81
550;BME280;20066;48.764;9.176;2023-04-08T10:59:26;98660.47;;;12.44;44.92
550;BME280;20066;48.764;9.176;2023-04-08T11:01:55;98654.69;;;12.49;45.07
550;BME280;20066;48.764;9.176;2023-04-08T11:04:24;98659.28;;;12.27;45.84
550;BME280;20066;48.764;9.176;2023-04-08T11:06:52;98657.38;;;12.98;45.38
550;BME280;20066;48.764;9.176;2023-04-08T11:09:21;98661.63;;;13.21;44.38
550;BME280;20066;48.764;9.176;2023-04-08T11:11:49;98659.28;;;12.41;45.21
550;BME280;20066;48.764;9.176;2023-04-08T11:14:19;98658.91;;;12.53;44.42
550;BME280;20066;48.764;9.176;2023-04-08T11:16:47;98658.38;;;11.15;46.90
550;BME280;20066;48.764;9.176;2023-04-08T11:19:15;98657.75;;;12.54;44.91
550;BME280;20066;48.764;9.176;2023-04-08T11:21:44;98664.63;;;12.16;45.41
550;BME280;20066;48.764;9.176;2023-04-08T11:24:12;98653.47;;;12.21;45.12
550;BME280;20066;48.764;9.176;2023-04-08T11:26:43;98661.09;;;11.94;46.00
550;BME280;20066;48.764;9.176;2023-04-08T11:29:11;98650.00;;;12.17;44.97
550;BME280;20066;48.764;9.176;2023-04-08T11:31:41;98660.03;;;12.24;45.57
550;BME280;20066;48.764;9.176;2023-04-08T11:34:09;98652.72;;;12.53;45.14
550;BME280;20066;48.764;9.176;2023-04-08T11:36:39;98651.97;;;12.70;45.06
550;BME280;20066;48.764;9.176;2023-04-08T11:39:08;98651.09;;;13.58;43.21
550;BME280;20066;48.764;9.176;2023-04-08T11:41:38;98652.00;;;12.95;43.99
550;BME280;20066;48.764;9.176;2023-04-08T11:44:07;98655.56;;;14.04;41.93
550;BME280;20066;48.764;9.176;2023-04-08T11:46:35;98648.88;;;13.28;42.96
550;BME280;20066;48.764;9.176;2023-04-08T11:49:04;98648.88;;;13.14;43.34
550;BME280;20066;48.764;9.176;2023-04-08T11:51:33;98651.00;;;13.76;41.87
550;BME280;20066;48.764;9.176;2023-04-08T11:54:03;98649.25;;;14.28;41.48
550;BME280;20066;48.764;9.176;2023-04-08T11:56:44;98650.06;;;12.77;44.00
550;BME280;20066;48.764;9.176;2023-04-08T11:59:13;98656.88;;;11.97;46.19
550;BME280;20066;48.764;9.176;2023-04-08T12:01:41;98655.06;;;13.00;44.67
550;BME280;20066;48.764;9.176;2023-04-08T12:04:09;98648.50;;;13.16;43.42
550;BME280;20066;48.764;9.176;2023-04-08T12:06:38;98651.81;;;11.12;47.84
550;BME280;20066;48.764;9.176;2023-04-08T12:09:08;98648.88;;;12.54;45.46
550;BME280;20066;48.764;9.176;2023-04-08T12:11:36;98662.75;;;12.52;44.95
550;BME280;20066;48.764;9.176;2023-04-08T12:14:04;98661.16;;;13.47;43.16
550;BME280;20066;48.764;9.176;2023-04-08T12:16:33;98659.31;;;12.55;45.16
550;BME280;20066;48.764;9.176;2023-04-08T12:19:01;98660.03;;;13.30;44.58
550;BME280;20066;48.764;9.176;2023-04-08T12:21:29;98665.06;;;12.47;46.48
550;BME280;20066;48.764;9.176;2023-04-08T12:23:57;98662.03;;;12.98;45.51
550;BME280;20066;48.764;9.176;2023-04-08T12:26:25;98666.22;;;13.31;44.88
550;BME280;20066;48.764;9.176;2023-04-08T12:28:53;98669.63;;;13.52;44.67
550;BME280;20066;48.764;9.176;2023-04-08T12:31:21;98657.72;;;13.43;44.69
550;BME280;20066;48.764;9.176;2023-04-08T12:33:50;98656.09;;;13.63;43.50
550;BME280;20066;48.764;9.176;2023-04-08T12:36:18;98658.34;;;13.82;42.48
550;BME280;20066;48.764;9.176;2023-04-08T12:38:46;98661.22;;;12.83;43.93
550;BME280;20066;48.764;9.176;2023-04-08T12:41:14;98655.47;;;13.09;44.58
550;BME280;20066;48.764;9.176;2023-04-08T12:43:42;98663.09;;;12.29;45.00
550;BME280;20066;48.764;9.176;2023-04-08T12:46:10;98657.34;;;12.52;44.91
550;BME280;20066;48.764;9.176;2023-04-08T12:48:38;98655.06;;;12.58;45.48
550;BME280;20066;48.764;9.176;2023-04-08T12:51:07;98651.97;;;13.16;44.42
550;BME280;20066;48.764;9.176;2023-04-08T12:53:36;98657.38;;;13.16;44.77
550;BME280;20066;48.764;9.176;2023-04-08T12:56:04;98649.28;;;13.12;44.19
550;BME280;20066;48.764;9.176;2023-04-08T12:58:32;98653.06;;;13.47;44.09
550;BME280;20066;48.764;9.176;2023-04-08T13:01:00;98659.31;;;12.66;44.77
550;BME280;20066;48.764;9.176;2023-04-08T13:03:28;98654.31;;;12.82;45.53
550;BME280;20066;48.764;9.176;2023-04-08T13:05:57;98651.19;;;12.84;45.20
550;BME280;20066;48.764;9.176;2023-04-08T13:08:26;98655.63;;;13.86;43.14
550;BME280;20066;48.764;9.176;2023-04-08T13:10:54;98655.84;;;12.72;45.18
550;BME280;20066;48.764;9.176;2023-04-08T13:13:22;98659.72;;;12.89;45.63
550;BME280;20066;48.764;9.176;2023-04-08T13:15:50;98652.31;;;13.32;44.14
550;BME280;20066;48.764;9.176;2023-04-08T13:18:18;98652.38;;;12.79;45.31
550;BME280;20066;48.764;9.176;2023-04-08T13:20:46;98653.47;;;13.38;43.92
550;BME280;20066;48.764;9.176;2023-04-08T13:23:13;98646.59;;;12.66;45.57
550;BME280;20066;48.764;9.176;2023-04-08T13:25:44;98648.53;;;12.66;46.43
550;BME280;20066;48.764;9.176;2023-04-08T13:28:12;98646.59;;;12.70;46.21
550;BME280;20066;48.764;9.176;2023-04-08T13:30:40;98662.00;;;12.48;46.54
550;BME280;20066;48.764;9.176;2023-04-08T13:33:08;98659.91;;;11.81;47.35
550;BME280;20066;48.764;9.176;2023-04-08T13:35:36;98656.19;;;12.46;46.44
550;BME280;20066;48.764;9.176;2023-04-08T13:38:03;98657.13;;;11.64;48.72